Time;durP1;ratioP1;P1;durP2;ratioP2;P2;SDS_P1;SDS_P2;PMS_P1;PMS_P2;Temp;Humidity;BMP_temperature;BMP_pressure;BME280_temperature;BME280_humidity;BME280_pressure;Samples;Min_cycle;Max_cycle;Signal;HPM_P1;HPM_P2
2024/01/07 00:00:58;;;;;;;10.10;7.20;;;;;;;;;;5016033;28;20115;-73
2024/01/07 00:03:23;;;;;;;9.73;6.83;;;;;;;;;;5016064;28;20355;-72
2024/01/07 00:05:48;;;;;;;10.65;7.60;;;;;;;;;;5014684;28;20359;-73
2024/01/07 00:08:13;;;;;;;10.73;7.72;;;;;;;;;;5014883;28;20046;-72
2024/01/07 00:10:39;;;;;;;9.93;7.28;;;;;;;;;;5015878;28;20028;-71
2024/01/07 00:13:04;;;;;;;9.95;6.97;;;;;;;;;;5014744;28;20101;-73
2024/01/07 00:15:29;;;;;;;12.13;7.47;;;;;;;;;;5015777;28;20052;-73
2024/01/07 00:17:55;;;;;;;10.32;7.25;;;;;;;;;;5015725;28;20038;-74
2024/01/07 00:20:20;;;;;;;10.07;7.53;;;;;;;;;;5015702;28;20042;-73
2024/01/07 00:22:45;;;;;;;10.95;7.78;;;;;;;;;;5015671;28;20025;-73
2024/01/07 00:25:11;;;;;;;10.40;7.20;;;;;;;;;;5015547;28;20387;-72
2024/01/07 00:27:36;;;;;;;11.13;8.13;;;;;;;;;;5015850;28;20029;-73
2024/01/07 00:30:01;;;;;;;13.05;8.38;;;;;;;;;;5014525;28;20029;-72
2024/01/07 00:32:26;;;;;;;11.23;7.47;;;;;;;;;;5015530;28;20029;-72
2024/01/07 00:34:52;;;;;;;13.93;8.02;;;;;;;;;;5015030;28;20398;-72
2024/01/07 00:37:17;;;;;;;12.13;8.10;;;;;;;;;;5013989;28;20057;-73
2024/01/07 00:39:43;;;;;;;11.02;8.13;;;;;;;;;;5016109;28;20084;-73
2024/01/07 00:42:09;;;;;;;12.55;8.60;;;;;;;;;;5015195;28;20082;-72
2024/01/07 00:44:34;;;;;;;12.57;8.77;;;;;;;;;;5015001;28;20025;-72
2024/01/07 00:46:59;;;;;;;11.98;8.32;;;;;;;;;;5015776;28;20030;-73
2024/01/07 00:49:24;;;;;;;11.70;8.02;;;;;;;;;;5015224;28;20485;-74
2024/01/07 00:51:50;;;;;;;14.63;8.85;;;;;;;;;;5015959;28;20080;-73
2024/01/07 00:54:15;;;;;;;12.82;8.45;;;;;;;;;;5015295;28;20029;-73
2024/01/07 00:56:40;;;;;;;12.38;8.45;;;;;;;;;;5014996;28;20083;-73
2024/01/07 00:59:05;;;;;;;12.35;8.38;;;;;;;;;;5014986;28;20049;-72
2024/01/07 01:01:31;;;;;;;11.23;8.18;;;;;;;;;;5014017;28;20026;-72
2024/01/07 01:03:57;;;;;;;12.68;8.73;;;;;;;;;;5015061;28;20026;-73
2024/01/07 01:06:23;;;;;;;12.15;8.45;;;;;;;;;;5015385;28;20450;-73
2024/01/07 01:08:48;;;;;;;10.75;7.75;;;;;;;;;;5013986;28;20025;-73
2024/01/07 01:11:13;;;;;;;12.32;8.48;;;;;;;;;;5014843;28;20050;-73
2024/01/07 01:13:38;;;;;;;12.50;8.77;;;;;;;;;;5015507;28;20028;-72
2024/01/07 01:16:04;;;;;;;13.48;9.23;;;;;;;;;;5014221;28;20528;-73
2024/01/07 01:18:29;;;;;;;12.75;8.73;;;;;;;;;;5015104;28;20521;-72
2024/01/07 01:20:55;;;;;;;15.15;9.15;;;;;;;;;;5014998;28;20022;-79
2024/01/07 01:23:20;;;;;;;12.85;8.32;;;;;;;;;;5014185;28;20101;-72
2024/01/07 01:25:46;;;;;;;12.57;8.52;;;;;;;;;;5014440;28;20535;-73
2024/01/07 01:28:11;;;;;;;12.77;8.65;;;;;;;;;;5014100;28;20026;-73
2024/01/07 01:30:36;;;;;;;11.93;8.52;;;;;;;;;;5014325;28;20025;-73
2024/01/07 01:33:02;;;;;;;12.68;9.13;;;;;;;;;;5014452;28;20029;-72
2024/01/07 01:35:27;;;;;;;13.63;8.85;;;;;;;;;;5014703;28;20049;-73
2024/01/07 01:37:54;;;;;;;11.90;8.60;;;;;;;;;;5014255;28;20463;-73
2024/01/07 01:40:19;;;;;;;12.68;8.32;;;;;;;;;;5014694;28;20029;-73
2024/01/07 01:42:45;;;;;;;12.10;8.05;;;;;;;;;;5014132;28;20021;-73
2024/01/07 01:45:10;;;;;;;12.70;8.52;;;;;;;;;;5014041;28;20026;-73
2024/01/07 01:47:35;;;;;;;12.93;8.60;;;;;;;;;;5014378;28;20378;-73
2024/01/07 01:50:00;;;;;;;12.32;8.50;;;;;;;;;;5013950;28;20056;-73
2024/01/07 01:52:26;;;;;;;14.57;8.68;;;;;;;;;;5014093;28;20030;-73
2024/01/07 01:54:52;;;;;;;14.05;9.10;;;;;;;;;;5013649;28;20459;-73
2024/01/07 01:57:22;;;;;;;13.77;8.77;;;;;;;;;;5013630;28;20116;-72
2024/01/07 01:59:48;;;;;;;15.38;9.65;;;;;;;;;;5013882;28;20557;-72
2024/01/07 02:02:13;;;;;;;13.00;8.55;;;;;;;;;;5014352;28;20026;-72
2024/01/07 02:04:38;;;;;;;14.15;9.23;;;;;;;;;;5014022;28;20054;-73
2024/01/07 02:07:04;;;;;;;12.57;8.75;;;;;;;;;;5013415;28;20080;-73
2024/01/07 02:09:29;;;;;;;15.45;10.00;;;;;;;;;;4996403;28;20022;-73
2024/01/07 02:12:04;;;;;;;12.07;9.23;;;;;;;;;;5013953;28;20053;-72
2024/01/07 02:14:29;;;;;;;13.65;9.45;;;;;;;;;;5013646;28;20067;-72
2024/01/07 02:16:54;;;;;;;13.85;9.15;;;;;;;;;;5013656;28;20109;-71
2024/01/07 02:19:20;;;;;;;13.90;9.05;;;;;;;;;;5012014;28;20022;-72
2024/01/07 02:21:45;;;;;;;13.88;9.70;;;;;;;;;;5013542;28;20018;-72
2024/01/07 02:24:15;;;;;;;15.90;9.30;;;;;;;;;;5013612;28;20124;-71
2024/01/07 02:26:40;;;;;;;14.07;8.70;;;;;;;;;;5013591;28;20156;-73
2024/01/07 02:29:05;;;;;;;15.32;9.45;;;;;;;;;;5013437;28;20466;-72
2024/01/07 02:31:30;;;;;;;14.00;9.52;;;;;;;;;;5013230;28;20093;-72
2024/01/07 02:33:56;;;;;;;14.90;9.43;;;;;;;;;;5012130;28;20084;-72
2024/01/07 02:36:21;;;;;;;14.82;9.70;;;;;;;;;;5013458;28;20305;-73
2024/01/07 02:38:46;;;;;;;11.80;9.07;;;;;;;;;;5013452;28;20028;-73
2024/01/07 02:41:11;;;;;;;13.40;9.23;;;;;;;;;;4995841;28;20018;-73
2024/01/07 02:43:38;;;;;;;13.88;9.27;;;;;;;;;;5013210;28;20120;-72
2024/01/07 02:46:03;;;;;;;13.48;8.95;;;;;;;;;;5013486;28;20386;-73
2024/01/07 02:48:28;;;;;;;13.18;9.70;;;;;;;;;;5013411;28;20101;-72
2024/01/07 02:50:55;;;;;;;12.45;9.30;;;;;;;;;;5013370;28;20026;-72
2024/01/07 02:53:20;;;;;;;16.48;9.10;;;;;;;;;;5013350;28;20022;-73
2024/01/07 02:55:45;;;;;;;18.33;9.95;;;;;;;;;;5013277;28;20098;-73
2024/01/07 02:58:11;;;;;;;13.73;8.75;;;;;;;;;;5013379;28;20034;-73
2024/01/07 03:00:36;;;;;;;14.23;9.60;;;;;;;;;;5013304;28;20518;-73
2024/01/07 03:03:01;;;;;;;15.90;9.18;;;;;;;;;;5013318;28;20022;-73
2024/01/07 03:05:29;;;;;;;12.25;8.95;;;;;;;;;;5012956;28;20050;-73
2024/01/07 03:07:54;;;;;;;14.43;8.95;;;;;;;;;;5013195;28;20091;-73
2024/01/07 03:10:19;;;;;;;13.57;8.45;;;;;;;;;;5013136;28;20026;-73
2024/01/07 03:12:44;;;;;;;14.48;8.90;;;;;;;;;;5013173;28;20026;-73
2024/01/07 03:15:09;;;;;;;16.10;9.15;;;;;;;;;;5013001;28;20088;-77
2024/01/07 03:17:35;;;;;;;12.05;8.45;;;;;;;;;;5013094;28;20041;-72
2024/01/07 03:20:00;;;;;;;12.02;8.90;;;;;;;;;;5013653;28;20049;-73
2024/01/07 03:22:26;;;;;;;14.57;8.43;;;;;;;;;;5013048;28;20105;-73
2024/01/07 03:24:51;;;;;;;10.82;8.23;;;;;;;;;;5013152;28;20184;-72
2024/01/07 03:27:16;;;;;;;11.50;7.88;;;;;;;;;;5013035;28;20060;-73
2024/01/07 03:29:41;;;;;;;11.18;8.13;;;;;;;;;;5013011;28;20109;-72
2024/01/07 03:32:06;;;;;;;9.48;8.18;;;;;;;;;;5014484;28;20401;-83
2024/01/07 03:34:32;;;;;;;12.57;8.25;;;;;;;;;;5016184;28;20030;-82
2024/01/07 03:36:57;;;;;;;12.32;8.68;;;;;;;;;;5016729;28;20026;-82
2024/01/07 03:39:22;;;;;;;15.32;8.55;;;;;;;;;;5015906;28;20022;-81
2024/01/07 03:41:48;;;;;;;11.13;8.30;;;;;;;;;;5016318;28;20477;-82
2024/01/07 03:44:13;;;;;;;10.07;7.53;;;;;;;;;;5016199;28;20100;-82
2024/01/07 03:46:38;;;;;;;10.70;8.25;;;;;;;;;;5015971;28;20026;-82
2024/01/07 03:49:03;;;;;;;13.05;8.82;;;;;;;;;;5015028;28;20026;-82
2024/01/07 03:51:28;;;;;;;13.82;9.25;;;;;;;;;;5015135;28;20033;-82
2024/01/07 03:53:54;;;;;;;12.23;9.25;;;;;;;;;;5015983;28;20029;-84
2024/01/07 03:56:19;;;;;;;12.05;8.63;;;;;;;;;;5016033;28;20025;-82
2024/01/07 03:58:44;;;;;;;12.77;8.63;;;;;;;;;;5015919;28;20092;-82
2024/01/07 04:01:09;;;;;;;13.13;8.70;;;;;;;;;;5015090;28;20041;-82
2024/01/07 04:03:35;;;;;;;14.07;9.70;;;;;;;;;;5015849;28;20037;-82
2024/01/07 04:06:00;;;;;;;13.70;8.90;;;;;;;;;;5015715;28;20487;-82
2024/01/07 04:08:25;;;;;;;14.55;9.63;;;;;;;;;;5015944;28;20470;-83
2024/01/07 04:10:50;;;;;;;12.73;8.80;;;;;;;;;;5016276;28;20392;-83
2024/01/07 04:13:15;;;;;;;11.82;9.25;;;;;;;;;;5014277;28;20584;-82
2024/01/07 04:15:41;;;;;;;13.43;9.20;;;;;;;;;;5015464;28;20112;-82
2024/01/07 04:18:06;;;;;;;11.30;8.38;;;;;;;;;;5015589;28;20026;-83
2024/01/07 04:20:31;;;;;;;11.75;9.00;;;;;;;;;;5015506;28;20025;-82
2024/01/07 04:22:57;;;;;;;13.88;9.32;;;;;;;;;;5015845;28;20024;-82
2024/01/07 04:25:22;;;;;;;14.45;8.68;;;;;;;;;;5015819;28;20033;-83
2024/01/07 04:27:47;;;;;;;11.00;8.93;;;;;;;;;;5015664;28;20022;-82
2024/01/07 04:30:13;;;;;;;13.40;8.98;;;;;;;;;;5015964;28;20030;-83
2024/01/07 04:32:38;;;;;;;12.20;8.85;;;;;;;;;;5014317;28;20063;-83
2024/01/07 04:35:03;;;;;;;11.43;8.57;;;;;;;;;;5014310;28;20036;-83
2024/01/07 04:37:29;;;;;;;13.50;8.93;;;;;;;;;;5015101;28;20026;-83
2024/01/07 04:39:54;;;;;;;11.48;8.88;;;;;;;;;;5015588;28;20030;-83
2024/01/07 04:42:19;;;;;;;13.23;9.38;;;;;;;;;;5012547;28;20032;-83
2024/01/07 04:44:44;;;;;;;12.50;9.02;;;;;;;;;;5015379;28;20385;-82
2024/01/07 04:47:25;;;;;;;12.70;9.57;;;;;;;;;;5013481;28;20430;-83
2024/01/07 04:49:50;;;;;;;11.55;8.25;;;;;;;;;;5014979;28;20463;-82
2024/01/07 04:52:15;;;;;;;12.85;8.68;;;;;;;;;;5014325;28;20080;-83
2024/01/07 04:54:40;;;;;;;13.13;9.07;;;;;;;;;;5014589;28;20029;-83
2024/01/07 04:57:06;;;;;;;12.82;9.43;;;;;;;;;;5013864;28;20071;-82
2024/01/07 04:59:31;;;;;;;13.15;9.63;;;;;;;;;;5014513;28;20026;-82
2024/01/07 05:01:56;;;;;;;12.05;8.60;;;;;;;;;;5014012;28;20026;-83
2024/01/07 05:04:22;;;;;;;12.05;9.10;;;;;;;;;;5014198;28;20100;-83
2024/01/07 05:06:47;;;;;;;12.93;9.57;;;;;;;;;;5014249;28;20025;-82
2024/01/07 05:09:13;;;;;;;14.63;9.88;;;;;;;;;;5014301;28;20026;-82
2024/01/07 05:11:41;;;;;;;14.13;9.63;;;;;;;;;;5014254;28;20052;-83
2024/01/07 05:14:06;;;;;;;16.08;10.00;;;;;;;;;;5013921;28;20032;-82
2024/01/07 05:16:31;;;;;;;12.82;9.75;;;;;;;;;;5014047;28;20026;-82
2024/01/07 05:18:57;;;;;;;13.18;9.45;;;;;;;;;;5013260;28;20037;-83
2024/01/07 05:21:22;;;;;;;14.95;10.43;;;;;;;;;;5013988;28;20018;-83
2024/01/07 05:23:47;;;;;;;16.00;10.77;;;;;;;;;;5014643;28;20018;-84
2024/01/07 05:26:12;;;;;;;17.67;10.80;;;;;;;;;;5014183;28;20024;-83
2024/01/07 05:28:37;;;;;;;19.48;11.82;;;;;;;;;;5013355;28;20017;-82
2024/01/07 05:31:03;;;;;;;16.13;10.57;;;;;;;;;;5013927;28;20025;-82
2024/01/07 05:33:28;;;;;;;16.40;11.05;;;;;;;;;;5012286;28;20036;-82
2024/01/07 05:35:53;;;;;;;16.33;10.45;;;;;;;;;;5013540;28;20030;-83
2024/01/07 05:38:18;;;;;;;14.48;10.38;;;;;;;;;;5013517;28;20026;-82
2024/01/07 05:40:44;;;;;;;17.40;11.13;;;;;;;;;;5013749;28;20045;-83
2024/01/07 05:43:09;;;;;;;16.50;10.95;;;;;;;;;;5014321;28;20366;-83
2024/01/07 05:45:34;;;;;;;16.25;10.68;;;;;;;;;;5012957;28;20053;-82
2024/01/07 05:47:59;;;;;;;14.50;10.38;;;;;;;;;;5014258;28;20041;-82
2024/01/07 05:50:24;;;;;;;14.63;10.65;;;;;;;;;;5013903;28;20455;-82
2024/01/07 05:52:50;;;;;;;18.20;11.25;;;;;;;;;;5013882;28;20076;-83
2024/01/07 05:55:15;;;;;;;16.25;11.00;;;;;;;;;;5012144;28;20072;-83
2024/01/07 05:57:40;;;;;;;18.55;10.93;;;;;;;;;;5014183;28;20058;-83
2024/01/07 06:00:06;;;;;;;14.27;10.70;;;;;;;;;;5012474;28;20517;-83
2024/01/07 06:02:31;;;;;;;19.08;11.27;;;;;;;;;;5012998;28;20024;-83
2024/01/07 06:04:56;;;;;;;17.30;11.35;;;;;;;;;;5013807;28;20092;-83
2024/01/07 06:07:21;;;;;;;18.25;11.45;;;;;;;;;;5013161;28;20493;-83
2024/01/07 06:09:48;;;;;;;19.27;10.73;;;;;;;;;;5013479;28;20490;-84
2024/01/07 06:12:13;;;;;;;19.05;12.40;;;;;;;;;;5013156;28;20025;-84
2024/01/07 06:14:38;;;;;;;18.83;12.13;;;;;;;;;;5013158;28;20148;-84
2024/01/07 06:17:03;;;;;;;18.40;12.20;;;;;;;;;;5013157;28;20029;-84
2024/01/07 06:19:29;;;;;;;19.58;12.48;;;;;;;;;;5013977;28;20029;-84
2024/01/07 06:21:54;;;;;;;19.45;12.05;;;;;;;;;;5013873;28;20014;-85
2024/01/07 06:24:20;;;;;;;20.95;13.65;;;;;;;;;;5014285;28;20030;-84
2024/01/07 06:26:45;;;;;;;20.88;13.02;;;;;;;;;;5014023;28;20053;-84
2024/01/07 06:29:10;;;;;;;22.10;13.95;;;;;;;;;;5013955;28;20022;-85
2024/01/07 06:31:35;;;;;;;22.73;13.70;;;;;;;;;;5013978;28;20478;-84
2024/01/07 06:34:01;;;;;;;19.45;13.15;;;;;;;;;;5013641;28;20040;-83
2024/01/07 06:36:26;;;;;;;21.08;13.43;;;;;;;;;;5013636;28;20029;-83
2024/01/07 06:38:51;;;;;;;22.20;13.60;;;;;;;;;;5014525;28;20367;-84
2024/01/07 06:41:16;;;;;;;20.40;12.82;;;;;;;;;;5013924;28;20058;-83
2024/01/07 06:43:42;;;;;;;23.17;14.13;;;;;;;;;;5013947;28;20177;-83
2024/01/07 06:46:07;;;;;;;22.33;13.43;;;;;;;;;;5012985;28;20320;-84
2024/01/07 06:48:32;;;;;;;23.98;13.88;;;;;;;;;;5014325;28;20156;-84
2024/01/07 06:50:57;;;;;;;20.35;13.27;;;;;;;;;;5013710;28;20058;-83
2024/01/07 06:53:23;;;;;;;23.35;13.57;;;;;;;;;;5013701;28;20125;-84
2024/01/07 06:55:48;;;;;;;20.27;13.57;;;;;;;;;;5011896;28;20037;-83
2024/01/07 06:58:13;;;;;;;21.70;13.57;;;;;;;;;;5013291;28;20100;-83
2024/01/07 07:00:38;;;;;;;19.52;13.13;;;;;;;;;;5012474;28;20065;-84
2024/01/07 07:03:05;;;;;;;18.98;13.27;;;;;;;;;;5014168;28;20052;-84
2024/01/07 07:05:30;;;;;;;24.58;13.30;;;;;;;;;;5016534;28;20068;-83
2024/01/07 07:07:55;;;;;;;22.05;13.43;;;;;;;;;;5020741;28;20502;-83
2024/01/07 07:10:21;;;;;;;22.30;13.48;;;;;;;;;;5018617;28;20021;-83
2024/01/07 07:12:46;;;;;;;20.75;13.15;;;;;;;;;;5016201;28;20459;-82
2024/01/07 07:15:11;;;;;;;22.52;14.27;;;;;;;;;;5016840;28;20038;-83
2024/01/07 07:17:39;;;;;;;22.45;13.55;;;;;;;;;;5016065;28;20033;-84
2024/01/07 07:20:05;;;;;;;22.58;12.85;;;;;;;;;;5016386;28;20536;-83
2024/01/07 07:22:30;;;;;;;22.70;12.25;;;;;;;;;;5016584;28;20117;-84
2024/01/07 07:24:56;;;;;;;17.05;11.68;;;;;;;;;;5016298;28;20393;-84
2024/01/07 07:27:21;;;;;;;16.38;11.52;;;;;;;;;;5016740;28;20026;-84
2024/01/07 07:29:46;;;;;;;15.60;10.90;;;;;;;;;;5015015;28;20024;-82
2024/01/07 07:32:12;;;;;;;17.52;10.43;;;;;;;;;;5016154;28;20090;-83
2024/01/07 07:34:37;;;;;;;14.32;9.77;;;;;;;;;;5015948;28;20030;-84
2024/01/07 07:37:03;;;;;;;14.85;10.10;;;;;;;;;;5015556;28;20057;-83
2024/01/07 07:39:28;;;;;;;15.30;9.88;;;;;;;;;;5016195;28;20056;-84
2024/01/07 07:41:53;;;;;;;18.73;9.57;;;;;;;;;;5016158;28;20470;-83
2024/01/07 07:44:18;;;;;;;15.95;8.93;;;;;;;;;;5016285;28;20034;-83
2024/01/07 07:46:44;;;;;;;13.02;9.38;;;;;;;;;;5016923;28;20057;-83
2024/01/07 07:49:09;;;;;;;13.30;9.00;;;;;;;;;;5016292;28;20547;-84
2024/01/07 07:51:34;;;;;;;13.63;9.57;;;;;;;;;;5015113;28;20022;-84
2024/01/07 07:53:59;;;;;;;13.18;8.65;;;;;;;;;;5016274;28;20022;-83
2024/01/07 07:56:24;;;;;;;13.48;8.35;;;;;;;;;;5016563;28;20030;-84
2024/01/07 07:58:50;;;;;;;13.50;8.75;;;;;;;;;;5016386;28;20101;-84
2024/01/07 08:01:16;;;;;;;15.18;8.75;;;;;;;;;;5014264;28;20033;-83
2024/01/07 08:03:42;;;;;;;12.82;9.30;;;;;;;;;;5015095;28;20025;-83
2024/01/07 08:06:07;;;;;;;15.45;10.27;;;;;;;;;;5014864;28;20050;-83
2024/01/07 08:08:32;;;;;;;15.45;9.90;;;;;;;;;;5016099;28;20029;-84
2024/01/07 08:10:57;;;;;;;15.45;10.50;;;;;;;;;;5015222;28;20057;-84
2024/01/07 08:13:22;;;;;;;14.57;9.20;;;;;;;;;;5015578;28;20125;-84
2024/01/07 08:15:48;;;;;;;15.48;9.70;;;;;;;;;;5015376;28;20402;-83
2024/01/07 08:18:13;;;;;;;17.27;10.30;;;;;;;;;;5014725;28;20037;-84
2024/01/07 08:20:38;;;;;;;15.18;8.95;;;;;;;;;;5013807;28;20022;-84
2024/01/07 08:23:04;;;;;;;16.90;10.18;;;;;;;;;;5013729;28;20033;-84
2024/01/07 08:25:29;;;;;;;14.35;9.70;;;;;;;;;;5015553;28;20459;-83
2024/01/07 08:27:55;;;;;;;14.82;9.35;;;;;;;;;;5015607;28;20164;-84
2024/01/07 08:30:20;;;;;;;12.75;9.23;;;;;;;;;;5015430;28;20018;-83
2024/01/07 08:32:45;;;;;;;14.60;9.57;;;;;;;;;;5015840;28;20030;-84
2024/01/07 08:35:11;;;;;;;14.02;8.75;;;;;;;;;;4997559;28;20443;-83
2024/01/07 08:37:36;;;;;;;12.60;8.73;;;;;;;;;;5015613;28;20030;-84
2024/01/07 08:40:02;;;;;;;14.23;8.57;;;;;;;;;;5016618;28;20041;-83
2024/01/07 08:42:29;;;;;;;15.20;9.95;;;;;;;;;;5016122;28;20028;-83
2024/01/07 08:44:55;;;;;;;16.58;10.77;;;;;;;;;;5016611;28;20081;-79
2024/01/07 08:47:20;;;;;;;15.20;9.95;;;;;;;;;;5015481;28;20493;-79
2024/01/07 08:49:45;;;;;;;13.32;8.95;;;;;;;;;;5015182;28;20438;-79
2024/01/07 08:52:10;;;;;;;14.48;9.38;;;;;;;;;;5015078;28;20049;-78
2024/01/07 08:54:35;;;;;;;12.77;9.10;;;;;;;;;;5013694;28;20033;-79
2024/01/07 08:57:01;;;;;;;15.10;9.45;;;;;;;;;;5015295;28;20053;-78
2024/01/07 08:59:26;;;;;;;13.48;8.18;;;;;;;;;;5015372;28;20056;-78
2024/01/07 09:01:51;;;;;;;12.95;9.07;;;;;;;;;;5015371;28;20075;-80
2024/01/07 09:04:17;;;;;;;12.13;9.00;;;;;;;;;;5014595;28;20101;-80
2024/01/07 09:06:43;;;;;;;14.25;8.65;;;;;;;;;;5016525;28;20447;-79
2024/01/07 09:09:08;;;;;;;12.43;8.52;;;;;;;;;;5014872;28;20042;-78
2024/01/07 09:11:34;;;;;;;12.45;8.80;;;;;;;;;;5014878;28;20025;-81
2024/01/07 09:13:59;;;;;;;14.30;9.63;;;;;;;;;;5014902;28;20033;-80
2024/01/07 09:16:25;;;;;;;12.98;8.98;;;;;;;;;;5014807;28;20084;-80
2024/01/07 09:18:50;;;;;;;14.20;8.90;;;;;;;;;;5015291;28;20030;-79
2024/01/07 09:21:16;;;;;;;11.77;8.60;;;;;;;;;;5015023;28;20071;-79
2024/01/07 09:23:41;;;;;;;14.18;9.00;;;;;;;;;;5015154;28;20026;-79
2024/01/07 09:26:07;;;;;;;12.18;8.07;;;;;;;;;;5014917;28;20033;-80
2024/01/07 09:28:32;;;;;;;11.77;8.07;;;;;;;;;;5013964;28;20050;-77
2024/01/07 09:30:57;;;;;;;12.77;8.10;;;;;;;;;;5015421;28;20036;-78
2024/01/07 09:33:23;;;;;;;11.38;7.55;;;;;;;;;;5014785;28;20033;-79
2024/01/07 09:35:49;;;;;;;13.13;7.85;;;;;;;;;;5014850;28;20026;-79
2024/01/07 09:38:14;;;;;;;11.45;7.13;;;;;;;;;;5014739;28;20108;-79
2024/01/07 09:40:40;;;;;;;12.05;7.68;;;;;;;;;;5014507;28;20100;-83
2024/01/07 09:43:05;;;;;;;11.27;8.25;;;;;;;;;;5014144;28;20029;-78
2024/01/07 09:45:31;;;;;;;12.18;7.75;;;;;;;;;;5014264;28;20025;-81
2024/01/07 09:47:56;;;;;;;11.32;8.02;;;;;;;;;;5014554;28;20449;-79
2024/01/07 09:50:22;;;;;;;9.25;6.80;;;;;;;;;;5013140;28;20091;-79
2024/01/07 09:52:48;;;;;;;11.60;6.88;;;;;;;;;;5013802;28;20486;-78
2024/01/07 09:55:19;;;;;;;11.95;8.15;;;;;;;;;;5013746;28;20029;-77
2024/01/07 09:57:44;;;;;;;11.45;7.47;;;;;;;;;;5014279;28;20108;-79
2024/01/07 10:00:11;;;;;;;11.82;7.07;;;;;;;;;;5013820;28;20465;-79
2024/01/07 10:02:36;;;;;;;9.27;6.50;;;;;;;;;;5014709;28;20029;-81
2024/01/07 10:05:02;;;;;;;11.10;5.90;;;;;;;;;;5013874;28;20437;-81
2024/01/07 10:07:27;;;;;;;9.10;6.28;;;;;;;;;;5013882;28;20027;-81
2024/01/07 10:09:54;;;;;;;9.75;6.45;;;;;;;;;;5014664;28;20389;-80
2024/01/07 10:12:22;;;;;;;9.07;6.15;;;;;;;;;;5014479;28;20032;-79
2024/01/07 10:14:47;;;;;;;8.90;5.75;;;;;;;;;;5014092;28;20049;-80
2024/01/07 10:17:16;;;;;;;10.45;5.78;;;;;;;;;;5013723;28;20130;-80
2024/01/07 10:19:43;;;;;;;8.38;5.85;;;;;;;;;;5013871;28;20099;-80
2024/01/07 10:22:08;;;;;;;19.85;6.35;;;;;;;;;;5013694;28;20030;-78
2024/01/07 10:24:38;;;;;;;19.60;5.60;;;;;;;;;;5013737;28;20034;-81
2024/01/07 10:27:03;;;;;;;12.85;5.88;;;;;;;;;;5014568;28;20025;-80
2024/01/07 10:29:29;;;;;;;8.98;5.53;;;;;;;;;;5013185;28;20037;-79
2024/01/07 10:31:57;;;;;;;8.38;5.57;;;;;;;;;;5012513;28;20032;-81
2024/01/07 10:34:23;;;;;;;9.48;5.65;;;;;;;;;;5013334;28;20057;-81
2024/01/07 10:36:49;;;;;;;17.75;5.82;;;;;;;;;;5012804;28;20064;-80
2024/01/07 10:39:16;;;;;;;11.73;5.50;;;;;;;;;;5012804;28;20030;-80
2024/01/07 10:41:42;;;;;;;9.75;5.70;;;;;;;;;;5016901;28;20061;-80
2024/01/07 10:44:08;;;;;;;9.02;5.65;;;;;;;;;;5016868;28;20018;-79
2024/01/07 10:46:33;;;;;;;11.32;6.40;;;;;;;;;;5016458;28;20449;-80
2024/01/07 10:49:04;;;;;;;12.20;6.15;;;;;;;;;;5016521;28;20041;-78
2024/01/07 10:51:31;;;;;;;11.13;5.40;;;;;;;;;;5016988;28;20480;-79
2024/01/07 10:53:56;;;;;;;8.43;5.72;;;;;;;;;;5016718;28;20030;-79
2024/01/07 10:56:25;;;;;;;11.02;5.68;;;;;;;;;;5016378;28;20098;-81
2024/01/07 10:58:52;;;;;;;10.32;5.70;;;;;;;;;;5016643;28;20026;-81
2024/01/07 11:01:18;;;;;;;8.10;5.35;;;;;;;;;;5016459;28;20097;-78
2024/01/07 11:03:45;;;;;;;11.25;6.13;;;;;;;;;;5016094;28;20049;-78
2024/01/07 11:06:20;;;;;;;10.13;5.03;;;;;;;;;;5015639;28;20481;-81
2024/01/07 11:08:52;;;;;;;6.68;4.40;;;;;;;;;;5017016;28;20030;-87
2024/01/07 11:11:24;;;;;;;6.60;4.32;;;;;;;;;;5018116;28;20366;-85
2024/01/07 11:13:50;;;;;;;7.60;4.97;;;;;;;;;;5016452;28;20014;-80
2024/01/07 11:16:35;;;;;;;6.75;4.43;;;;;;;;;;5016272;28;20084;-78
2024/01/07 11:19:02;;;;;;;6.38;4.13;;;;;;;;;;5016975;28;20022;-80
2024/01/07 11:21:27;;;;;;;9.15;4.65;;;;;;;;;;5016956;28;20026;-79
2024/01/07 11:23:53;;;;;;;6.22;4.47;;;;;;;;;;5016098;28;20117;-80
2024/01/07 11:26:18;;;;;;;8.40;4.30;;;;;;;;;;5016073;28;20523;-80
2024/01/07 11:28:49;;;;;;;8.90;4.55;;;;;;;;;;5015984;28;20026;-79
2024/01/07 11:31:15;;;;;;;;;;;;;;;;;;5016450;28;20075;-80
2024/01/07 11:33:45;;;;;;;6.93;5.05;;;;;;;;;;5015987;28;20012;-78
2024/01/07 11:36:10;;;;;;;9.75;4.88;;;;;;;;;;5016376;28;20114;-79
2024/01/07 11:38:38;;;;;;;9.40;5.32;;;;;;;;;;5016139;28;20022;-79
2024/01/07 11:41:05;;;;;;;6.47;4.25;;;;;;;;;;5015830;28;20101;-79
2024/01/07 11:43:30;;;;;;;5.55;3.78;;;;;;;;;;5014749;28;20100;-79
2024/01/07 11:45:55;;;;;;;5.07;3.75;;;;;;;;;;5016435;28;20459;-79
2024/01/07 11:48:21;;;;;;;6.32;3.90;;;;;;;;;;5016296;28;20026;-79
2024/01/07 11:50:46;;;;;;;4.60;3.47;;;;;;;;;;5016552;28;20100;-81
2024/01/07 11:53:11;;;;;;;5.93;3.30;;;;;;;;;;5017175;28;20050;-80
2024/01/07 11:55:37;;;;;;;5.35;3.63;;;;;;;;;;5017261;28;20358;-81
2024/01/07 11:58:03;;;;;;;5.20;3.38;;;;;;;;;;5017261;28;20057;-77
2024/01/07 12:00:30;;;;;;;11.40;3.75;;;;;;;;;;5017250;28;20022;-81
2024/01/07 12:02:55;;;;;;;16.17;3.58;;;;;;;;;;5016365;28;20359;-78
2024/01/07 12:05:21;;;;;;;5.10;3.25;;;;;;;;;;5014685;28;20054;-79
2024/01/07 12:07:46;;;;;;;5.40;3.22;;;;;;;;;;5016299;28;20071;-78
2024/01/07 12:10:11;;;;;;;3.50;2.90;;;;;;;;;;5015448;28;20061;-78
2024/01/07 12:12:38;;;;;;;3.78;3.00;;;;;;;;;;5015766;28;20033;-78
2024/01/07 12:15:04;;;;;;;5.07;3.13;;;;;;;;;;5015000;28;20371;-80
2024/01/07 12:17:30;;;;;;;4.40;3.20;;;;;;;;;;5015416;28;20026;-79
2024/01/07 12:19:56;;;;;;;5.60;3.70;;;;;;;;;;5018379;28;20025;-80
2024/01/07 12:22:21;;;;;;;3.75;3.22;;;;;;;;;;5022651;28;20018;-78
2024/01/07 12:24:47;;;;;;;5.40;3.45;;;;;;;;;;5015007;28;20370;-79
2024/01/07 12:27:14;;;;;;;4.10;3.20;;;;;;;;;;5015008;28;20026;-79
2024/01/07 12:29:39;;;;;;;5.07;3.60;;;;;;;;;;5015596;28;20033;-78
2024/01/07 12:32:05;;;;;;;6.50;3.58;;;;;;;;;;5015121;28;20037;-79
2024/01/07 12:34:30;;;;;;;5.80;3.60;;;;;;;;;;5015030;28;20411;-75
2024/01/07 12:36:56;;;;;;;4.38;3.28;;;;;;;;;;5015430;28;20030;-78
2024/01/07 12:39:21;;;;;;;5.18;2.83;;;;;;;;;;5015906;28;20106;-79
2024/01/07 12:41:47;;;;;;;4.75;3.00;;;;;;;;;;5014845;28;20022;-78
2024/01/07 12:44:12;;;;;;;7.13;2.95;;;;;;;;;;5015830;28;20029;-78
2024/01/07 12:46:37;;;;;;;7.20;3.08;;;;;;;;;;5015589;28;20077;-80
2024/01/07 12:49:02;;;;;;;3.42;2.30;;;;;;;;;;5014817;28;20069;-78
2024/01/07 12:51:28;;;;;;;3.17;2.30;;;;;;;;;;5014455;28;20376;-79
2024/01/07 12:53:53;;;;;;;4.90;2.47;;;;;;;;;;5014937;28;20805;-79
2024/01/07 12:56:18;;;;;;;5.78;2.95;;;;;;;;;;5015105;28;20033;-84
2024/01/07 12:58:43;;;;;;;4.00;2.83;;;;;;;;;;5014218;28;20037;-80
2024/01/07 13:01:10;;;;;;;3.80;2.17;;;;;;;;;;5014115;28;20021;-81
2024/01/07 13:03:35;;;;;;;4.80;2.40;;;;;;;;;;5012302;28;20014;-81
2024/01/07 13:06:03;;;;;;;3.28;2.20;;;;;;;;;;5013999;28;20050;-80
2024/01/07 13:08:28;;;;;;;2.55;2.10;;;;;;;;;;5013981;28;20030;-82
2024/01/07 13:10:54;;;;;;;4.78;2.30;;;;;;;;;;5014315;28;20497;-82
2024/01/07 13:13:19;;;;;;;4.35;2.50;;;;;;;;;;5013941;28;20046;-81
2024/01/07 13:15:44;;;;;;;2.95;2.00;;;;;;;;;;5013497;28;20458;-83
2024/01/07 13:18:11;;;;;;;2.63;2.15;;;;;;;;;;5013368;28;20072;-81
2024/01/07 13:20:39;;;;;;;2.47;2.03;;;;;;;;;;5013687;28;20026;-82
2024/01/07 13:23:04;;;;;;;3.25;1.67;;;;;;;;;;5013550;28;20030;-82
2024/01/07 13:25:29;;;;;;;2.10;1.77;;;;;;;;;;5012104;28;20081;-80
2024/01/07 13:27:55;;;;;;;2.20;1.73;;;;;;;;;;5012266;28;20026;-81
2024/01/07 13:30:20;;;;;;;2.93;1.87;;;;;;;;;;5013634;28;20025;-80
2024/01/07 13:32:45;;;;;;;2.67;2.10;;;;;;;;;;5013844;28;20253;-85
2024/01/07 13:35:12;;;;;;;2.22;2.03;;;;;;;;;;5014210;28;20293;-77
2024/01/07 13:37:38;;;;;;;3.05;1.80;;;;;;;;;;5013966;28;20028;-82
2024/01/07 13:40:03;;;;;;;4.50;2.40;;;;;;;;;;5013735;28;20026;-84
2024/01/07 13:42:29;;;;;;;2.88;2.15;;;;;;;;;;5013783;28;20024;-82
2024/01/07 13:44:54;;;;;;;5.38;2.33;;;;;;;;;;5012759;28;20029;-83
2024/01/07 13:47:19;;;;;;;3.17;1.90;;;;;;;;;;5013738;28;20359;-83
2024/01/07 13:49:45;;;;;;;2.83;2.00;;;;;;;;;;5014220;28;20066;-81
2024/01/07 13:52:10;;;;;;;2.75;2.00;;;;;;;;;;5014369;28;20026;-82
2024/01/07 13:54:35;;;;;;;2.08;1.73;;;;;;;;;;5020876;28;20037;-80
2024/01/07 13:57:01;;;;;;;3.10;1.95;;;;;;;;;;5017292;28;20155;-80
2024/01/07 13:59:26;;;;;;;3.63;1.73;;;;;;;;;;5013609;28;20058;-78
2024/01/07 14:01:52;;;;;;;3.58;1.90;;;;;;;;;;5013541;28;20485;-81
2024/01/07 14:04:17;;;;;;;4.72;2.25;;;;;;;;;;5013191;28;20033;-80
2024/01/07 14:06:43;;;;;;;2.58;2.00;;;;;;;;;;5012966;28;20050;-81
2024/01/07 14:09:08;;;;;;;3.15;1.92;;;;;;;;;;5013377;28;20534;-80
2024/01/07 14:11:34;;;;;;;5.38;2.70;;;;;;;;;;5012078;28;20057;-81
2024/01/07 14:14:00;;;;;;;3.20;2.17;;;;;;;;;;5013588;28;20018;-80
2024/01/07 14:16:26;;;;;;;2.50;1.85;;;;;;;;;;5013235;28;20037;-79
2024/01/07 14:18:51;;;;;;;6.10;1.92;;;;;;;;;;5012802;28;20030;-81
2024/01/07 14:21:16;;;;;;;2.85;1.85;;;;;;;;;;5012462;28;20080;-81